createdAt,value
2018-12-07T00:01:10.544Z,91.77
2018-12-07T00:03:40.523Z,91.82
2018-12-07T00:06:09.899Z,91.89
2018-12-07T00:08:39.451Z,91.43
2018-12-07T00:11:09.211Z,91.83
2018-12-07T00:13:38.942Z,91.79
2018-12-07T00:16:08.795Z,91.72
2018-12-07T00:18:38.786Z,91.48
2018-12-07T00:21:08.439Z,91.22
2018-12-07T00:23:37.862Z,91.08
2018-12-07T00:26:07.113Z,90.79
2018-12-07T00:28:36.639Z,90.42
2018-12-07T00:31:06.129Z,90.83
2018-12-07T00:33:35.632Z,90.54
2018-12-07T00:36:05.561Z,90.40
2018-12-07T00:38:35.187Z,90.40
2018-12-07T00:41:04.937Z,90.49
2018-12-07T00:43:34.177Z,90.46
2018-12-07T00:46:03.929Z,90.55
2018-12-07T00:48:34.242Z,90.47
2018-12-07T00:51:04.211Z,90.26
2018-12-07T00:53:33.463Z,90.45
2018-12-07T00:56:03.427Z,90.65
2018-12-07T00:58:33.403Z,90.70
2018-12-07T01:01:04.453Z,90.99
2018-12-07T01:03:34.013Z,91.51
2018-12-07T01:06:03.249Z,91.54
2018-12-07T01:08:32.414Z,91.74
2018-12-07T01:11:02.051Z,91.83
2018-12-07T01:13:31.248Z,91.54
2018-12-07T01:16:00.740Z,91.78
2018-12-07T01:18:31.182Z,91.73
2018-12-07T01:21:01.197Z,91.13
2018-12-07T01:23:31.597Z,91.84
2018-12-07T01:26:00.759Z,91.57
2018-12-07T01:28:30.423Z,91.77
2018-12-07T01:30:59.674Z,91.42
2018-12-07T01:33:29.362Z,91.68
2018-12-07T01:35:59.263Z,91.57
2018-12-07T01:38:28.788Z,91.70
2018-12-07T01:40:59.505Z,91.37
2018-12-07T01:43:28.737Z,91.24
2018-12-07T01:45:58.789Z,90.86
2018-12-07T01:48:27.983Z,91.32
2018-12-07T01:50:57.445Z,90.87
2018-12-07T01:53:26.625Z,91.10
2018-12-07T01:55:56.595Z,90.81
2018-12-07T01:58:26.095Z,90.51
2018-12-07T02:00:55.273Z,90.22
2018-12-07T02:03:26.174Z,90.35
2018-12-07T02:05:56.121Z,89.75
2018-12-07T02:08:25.478Z,89.88
2018-12-07T02:10:54.618Z,89.53
2018-12-07T02:13:24.864Z,89.49
2018-12-07T02:15:54.437Z,89.31
2018-12-07T02:18:24.328Z,89.32
2018-12-07T02:20:53.554Z,89.57
2018-12-07T02:23:23.918Z,89.66
2018-12-07T02:25:53.655Z,89.35
2018-12-07T02:28:23.202Z,89.45
2018-12-07T02:30:54.134Z,89.33
2018-12-07T02:33:23.495Z,89.26
2018-12-07T02:35:52.978Z,89.46
2018-12-07T02:38:22.569Z,89.28
2018-12-07T02:40:52.133Z,89.00
2018-12-07T02:43:21.859Z,88.69
2018-12-07T02:45:51.862Z,88.99
2018-12-07T02:48:21.738Z,89.07
2018-12-07T02:50:51.251Z,88.52
2018-12-07T02:53:21.262Z,87.93
2018-12-07T02:55:50.671Z,87.83
2018-12-07T02:58:19.805Z,88.02
2018-12-07T03:00:49.081Z,88.44
2018-12-07T03:03:19.149Z,88.70
2018-12-07T03:05:49.689Z,89.22
2018-12-07T03:08:20.517Z,89.38
2018-12-07T03:10:49.866Z,89.46
2018-12-07T03:13:19.366Z,89.38
2018-12-07T03:15:49.673Z,89.66
2018-12-07T03:18:29.522Z,89.72
2018-12-07T03:21:05.825Z,90.19
2018-12-07T03:23:35.970Z,90.27
2018-12-07T03:26:05.574Z,90.57
2018-12-07T03:28:35.138Z,90.58
2018-12-07T03:31:04.425Z,91.36
2018-12-07T03:33:33.735Z,91.44
2018-12-07T03:36:03.417Z,90.82
2018-12-07T03:38:32.758Z,90.64
2018-12-07T03:41:02.749Z,90.21
2018-12-07T03:43:32.944Z,90.20
2018-12-07T03:46:02.853Z,91.17
2018-12-07T03:48:32.117Z,90.47
2018-12-07T03:51:01.379Z,90.14
2018-12-07T03:53:31.156Z,91.24
2018-12-07T03:56:00.310Z,89.77
2018-12-07T03:58:31.581Z,90.41
2018-12-07T04:01:01.541Z,89.64
2018-12-07T04:03:32.084Z,88.79
2018-12-07T04:06:01.636Z,88.44
2018-12-07T04:08:31.384Z,88.57
2018-12-07T04:11:01.727Z,88.17
2018-12-07T04:13:30.925Z,88.16
2018-12-07T04:16:00.110Z,87.86
2018-12-07T04:18:29.235Z,87.91
2018-12-07T04:20:58.425Z,87.76
2018-12-07T04:23:28.021Z,87.59
2018-12-07T04:25:58.198Z,87.85
2018-12-07T04:28:30.105Z,87.94
2018-12-07T04:30:59.256Z,87.82
2018-12-07T04:33:28.980Z,88.00
2018-12-07T04:35:58.486Z,87.58
2018-12-07T04:38:29.912Z,87.17
2018-12-07T04:40:59.125Z,87.15
2018-12-07T04:43:28.429Z,87.34
2018-12-07T04:45:57.948Z,87.62
2018-12-07T04:48:27.322Z,87.54
2018-12-07T04:50:56.923Z,87.51
2018-12-07T04:53:28.104Z,87.69
2018-12-07T04:55:57.371Z,88.25
2018-12-07T04:58:28.450Z,88.37
2018-12-07T05:00:58.096Z,88.67
2018-12-07T05:03:28.928Z,88.80
2018-12-07T05:05:58.187Z,88.55
2018-12-07T05:08:27.909Z,88.69
2018-12-07T05:10:58.079Z,88.51
2018-12-07T05:13:27.313Z,88.21
2018-12-07T05:15:57.578Z,88.43
2018-12-07T05:18:27.731Z,88.40
2018-12-07T05:20:57.235Z,87.79
2018-12-07T05:23:27.295Z,88.83
2018-12-07T05:25:56.855Z,88.28
2018-12-07T05:28:26.778Z,88.87
2018-12-07T05:30:56.352Z,88.20
2018-12-07T05:33:25.546Z,88.27
2018-12-07T05:35:55.064Z,88.67
2018-12-07T05:38:24.565Z,88.61
2018-12-07T05:40:54.359Z,88.46
2018-12-07T05:43:23.462Z,88.25
2018-12-07T05:45:53.693Z,88.80
2018-12-07T05:48:23.748Z,89.61
2018-12-07T05:50:54.173Z,89.94
2018-12-07T05:53:23.877Z,90.80
2018-12-07T05:55:53.044Z,90.89
2018-12-07T05:58:22.300Z,91.18
2018-12-07T06:00:51.487Z,91.29
2018-12-07T06:03:21.103Z,91.36
2018-12-07T06:05:50.324Z,91.62
2018-12-07T06:08:19.889Z,91.46
2018-12-07T06:10:50.189Z,91.73
2018-12-07T06:13:20.666Z,92.03
2018-12-07T06:15:49.801Z,92.02
2018-12-07T06:18:19.281Z,92.19
2018-12-07T06:20:49.670Z,91.99
2018-12-07T06:23:18.908Z,92.13
2018-12-07T06:25:48.215Z,92.23
2018-12-07T06:28:17.514Z,92.63
2018-12-07T06:30:46.693Z,92.76
2018-12-07T06:33:16.623Z,93.17
2018-12-07T06:35:46.050Z,93.36
2018-12-07T06:38:15.285Z,93.15
2018-12-07T06:40:44.424Z,93.48
2018-12-07T06:43:15.511Z,93.24
2018-12-07T06:45:44.664Z,93.64
2018-12-07T06:48:15.575Z,93.59
2018-12-07T06:50:44.791Z,93.76
2018-12-07T06:53:14.189Z,93.99
2018-12-07T06:55:43.655Z,93.99
2018-12-07T06:58:13.481Z,93.91
2018-12-07T07:00:43.028Z,94.42
2018-12-07T07:03:12.696Z,93.88
2018-12-07T07:05:42.511Z,93.99
2018-12-07T07:08:12.068Z,94.43
2018-12-07T07:10:41.246Z,94.39
2018-12-07T07:13:11.157Z,94.29
2018-12-07T07:15:41.161Z,94.49
2018-12-07T07:18:10.281Z,94.29
2018-12-07T07:20:39.538Z,94.71
2018-12-07T07:23:09.033Z,94.45
2018-12-07T07:25:38.633Z,94.72
2018-12-07T07:28:08.502Z,94.84
2018-12-07T07:30:38.649Z,94.67
2018-12-07T07:33:08.186Z,94.99
2018-12-07T07:35:37.641Z,95.16
2018-12-07T07:38:06.772Z,95.20
2018-12-07T07:40:36.354Z,95.33
2018-12-07T07:43:06.616Z,95.17
2018-12-07T07:45:35.790Z,95.22
2018-12-07T07:48:05.184Z,95.44
2018-12-07T07:50:34.745Z,95.35
2018-12-07T07:53:03.870Z,95.23
2018-12-07T07:55:33.278Z,95.38
2018-12-07T07:58:02.533Z,95.59
2018-12-07T08:00:34.745Z,95.59
2018-12-07T08:03:13.915Z,95.42
2018-12-07T08:05:44.647Z,95.23
2018-12-07T08:08:14.594Z,95.08
2018-12-07T08:10:48.491Z,95.00
2018-12-07T08:13:24.668Z,95.22
2018-12-07T08:15:58.091Z,95.04
2018-12-07T08:18:30.782Z,95.12
2018-12-07T08:21:20.794Z,94.92
2018-12-07T08:23:50.930Z,94.78
2018-12-07T08:26:20.655Z,94.92
2018-12-07T08:28:49.924Z,94.74
2018-12-07T08:31:19.445Z,94.93
2018-12-07T08:33:48.716Z,94.61
2018-12-07T08:36:18.170Z,94.98
2018-12-07T08:38:48.753Z,94.69
2018-12-07T08:41:18.842Z,94.83
2018-12-07T08:43:48.418Z,94.81
2018-12-07T08:46:18.177Z,94.63
2018-12-07T08:48:48.638Z,94.45
2018-12-07T08:51:17.877Z,94.11
2018-12-07T08:53:47.571Z,93.95
2018-12-07T08:56:16.915Z,93.90
2018-12-07T08:58:46.127Z,93.56
2018-12-07T09:01:15.377Z,93.68
2018-12-07T09:03:44.542Z,93.40
2018-12-07T09:06:15.053Z,93.44
2018-12-07T09:08:44.312Z,93.16
2018-12-07T09:11:13.552Z,93.01
2018-12-07T09:13:42.802Z,92.99
2018-12-07T09:16:13.017Z,93.15
2018-12-07T09:18:43.097Z,93.62
2018-12-07T09:21:12.353Z,93.42
2018-12-07T09:23:41.509Z,93.20
2018-12-07T09:26:10.926Z,93.23
2018-12-07T09:28:40.251Z,93.02
2018-12-07T09:31:09.883Z,93.07
2018-12-07T09:33:39.199Z,93.08
2018-12-07T09:36:08.425Z,93.18
2018-12-07T09:38:38.441Z,93.20
2018-12-07T09:41:08.158Z,93.16
2018-12-07T09:43:37.456Z,92.59
2018-12-07T09:46:07.469Z,92.76
2018-12-07T09:48:37.598Z,93.00
2018-12-07T09:51:07.784Z,93.33
2018-12-07T09:53:37.483Z,92.83
2018-12-07T09:56:07.453Z,92.68
2018-12-07T09:58:38.313Z,92.46
2018-12-07T10:01:08.123Z,92.38
2018-12-07T10:03:37.886Z,92.70
2018-12-07T10:06:07.363Z,92.32
2018-12-07T10:08:36.946Z,92.64
2018-12-07T10:11:07.685Z,92.64
2018-12-07T10:13:37.490Z,92.26
2018-12-07T10:16:07.721Z,92.34
2018-12-07T10:18:37.518Z,92.22
2018-12-07T10:21:06.896Z,92.31
2018-12-07T10:23:36.510Z,92.38
2018-12-07T10:26:06.267Z,92.26
2018-12-07T10:28:35.949Z,92.42
2018-12-07T10:31:06.987Z,91.81
2018-12-07T10:33:40.646Z,91.70
2018-12-07T10:36:10.294Z,91.94
2018-12-07T10:38:44.865Z,91.88
2018-12-07T10:41:16.471Z,91.96
2018-12-07T10:43:48.314Z,91.78
2018-12-07T10:46:17.585Z,92.00
2018-12-07T10:48:46.855Z,91.99
2018-12-07T10:51:16.542Z,92.13
2018-12-07T10:53:46.305Z,92.16
2018-12-07T10:56:15.514Z,92.21
2018-12-07T10:58:45.341Z,92.30
2018-12-07T11:01:20.758Z,92.00
2018-12-07T11:03:55.820Z,91.98
2018-12-07T11:06:30.640Z,91.92
2018-12-07T11:09:05.940Z,92.71
2018-12-07T11:11:43.330Z,93.15
2018-12-07T11:14:13.483Z,92.92
2018-12-07T11:16:48.159Z,93.29
2018-12-07T11:19:23.045Z,93.17
2018-12-07T11:21:57.621Z,93.47
2018-12-07T11:24:33.004Z,92.45
2018-12-07T11:27:07.859Z,92.19
2018-12-07T11:29:42.535Z,91.99
2018-12-07T11:32:21.419Z,91.53
2018-12-07T11:34:57.080Z,91.78
2018-12-07T11:37:26.308Z,91.91
2018-12-07T11:39:55.517Z,91.79
2018-12-07T11:42:30.369Z,92.21
2018-12-07T11:45:00.110Z,92.18
2018-12-07T11:47:29.314Z,92.22
2018-12-07T11:49:59.330Z,92.17
2018-12-07T11:52:28.939Z,92.28
2018-12-07T11:55:01.655Z,91.99
2018-12-07T11:57:31.145Z,92.08
2018-12-07T12:00:00.748Z,92.11
2018-12-07T12:02:37.410Z,91.78
2018-12-07T12:05:09.182Z,91.85
2018-12-07T12:07:39.759Z,92.01
2018-12-07T12:10:11.061Z,92.04
2018-12-07T12:12:42.917Z,91.57
2018-12-07T12:15:12.277Z,91.55
2018-12-07T12:17:41.771Z,91.52
2018-12-07T12:20:11.666Z,91.45
2018-12-07T12:22:41.239Z,91.05
2018-12-07T12:25:11.933Z,91.09
2018-12-07T12:27:41.411Z,91.00
2018-12-07T12:30:11.613Z,91.33
2018-12-07T12:32:41.754Z,91.41
2018-12-07T12:35:12.191Z,91.26
2018-12-07T12:37:42.089Z,91.58
2018-12-07T12:40:12.854Z,91.68
2018-12-07T12:42:42.580Z,91.20
2018-12-07T12:45:12.131Z,91.44
2018-12-07T12:47:41.576Z,91.17
2018-12-07T12:50:17.244Z,91.44
2018-12-07T12:52:46.441Z,91.36
2018-12-07T12:55:16.770Z,91.60
2018-12-07T12:57:46.722Z,91.60
2018-12-07T13:00:16.064Z,91.38
2018-12-07T13:02:45.711Z,91.47
2018-12-07T13:05:15.287Z,91.57
2018-12-07T13:07:44.725Z,91.57
2018-12-07T13:10:14.720Z,91.56
2018-12-07T13:12:44.387Z,92.09
2018-12-07T13:15:15.383Z,92.19
2018-12-07T13:17:48.650Z,92.05
2018-12-07T13:20:18.623Z,92.00
2018-12-07T13:22:49.027Z,91.80
2018-12-07T13:25:18.202Z,91.69
2018-12-07T13:27:50.411Z,91.98
2018-12-07T13:30:21.093Z,92.07
2018-12-07T13:32:53.448Z,92.01
2018-12-07T13:35:23.450Z,91.85
2018-12-07T13:37:53.491Z,92.23
2018-12-07T13:40:23.089Z,92.03
2018-12-07T13:42:52.547Z,91.58
2018-12-07T13:45:22.659Z,91.68
2018-12-07T13:47:52.838Z,91.30
2018-12-07T13:50:55.819Z,91.32
2018-12-07T13:53:26.812Z,91.12
2018-12-07T13:55:57.561Z,90.90
2018-12-07T13:58:29.396Z,90.83
2018-12-07T14:00:58.892Z,91.12
2018-12-07T14:03:29.086Z,90.81
2018-12-07T14:06:00.634Z,90.88
2018-12-07T14:08:30.757Z,91.52
2018-12-07T14:11:01.737Z,91.62
2018-12-07T14:13:31.019Z,91.03
2018-12-07T14:16:01.326Z,91.04
2018-12-07T14:18:32.044Z,91.50
2018-12-07T14:21:01.701Z,91.80
2018-12-07T14:23:31.824Z,91.70
2018-12-07T14:26:02.826Z,91.76
2018-12-07T14:28:34.113Z,91.22
2018-12-07T14:31:03.603Z,91.16
2018-12-07T14:33:33.254Z,90.96
2018-12-07T14:36:04.660Z,90.75
2018-12-07T14:38:34.376Z,90.28
2018-12-07T14:41:04.329Z,89.99
2018-12-07T14:43:33.701Z,89.83
2018-12-07T14:46:04.330Z,89.30
2018-12-07T14:48:36.030Z,89.03
2018-12-07T14:51:05.401Z,89.28
2018-12-07T14:53:35.618Z,89.16
2018-12-07T14:56:06.695Z,89.28
2018-12-07T14:58:36.702Z,88.69
2018-12-07T15:01:06.186Z,88.70
2018-12-07T15:03:40.632Z,89.67
2018-12-07T15:06:09.972Z,89.06
2018-12-07T15:08:39.422Z,88.57
2018-12-07T15:11:11.082Z,88.43
2018-12-07T15:13:40.310Z,88.36
2018-12-07T15:16:09.709Z,88.29
2018-12-07T15:18:40.453Z,88.27
2018-12-07T15:21:10.667Z,88.26
2018-12-07T15:23:41.022Z,88.10
2018-12-07T15:26:10.583Z,87.96
2018-12-07T15:28:40.203Z,87.30
2018-12-07T15:31:09.501Z,87.16
2018-12-07T15:33:40.491Z,86.91
2018-12-07T15:36:09.834Z,86.93
2018-12-07T15:38:39.131Z,86.53
2018-12-07T15:41:08.776Z,86.66
2018-12-07T15:43:39.574Z,86.54
2018-12-07T15:46:09.097Z,85.65
2018-12-07T15:48:38.767Z,86.02
2018-12-07T15:51:16.846Z,86.00
2018-12-07T15:53:47.476Z,85.55
2018-12-07T15:59:03.419Z,85.32
2018-12-07T16:01:33.758Z,85.33
2018-12-07T16:04:04.978Z,84.73
2018-12-07T16:06:34.630Z,84.81
2018-12-07T16:09:13.814Z,85.15
2018-12-07T16:11:48.642Z,85.18
2018-12-07T16:14:17.995Z,85.94
2018-12-07T16:16:51.236Z,86.56
2018-12-07T16:19:23.440Z,87.45
2018-12-07T16:21:53.383Z,87.66
2018-12-07T16:24:24.507Z,88.58
2018-12-07T16:26:53.796Z,89.32
2018-12-07T16:29:23.736Z,89.27
2018-12-07T16:31:56.491Z,88.93
2018-12-07T16:34:26.747Z,89.05
2018-12-07T16:36:57.040Z,89.30
2018-12-07T16:39:26.751Z,89.36
2018-12-07T16:41:56.210Z,89.33
2018-12-07T16:44:27.521Z,88.55
2018-12-07T16:46:57.407Z,87.92
2018-12-07T16:49:27.346Z,87.43
2018-12-07T16:51:57.456Z,87.13
2018-12-07T16:54:27.813Z,86.48
2018-12-07T16:56:57.459Z,86.98
2018-12-07T16:59:27.041Z,86.75
2018-12-07T17:01:56.302Z,86.34
2018-12-07T17:04:27.614Z,87.13
2018-12-07T17:06:56.856Z,88.39
2018-12-07T17:09:26.915Z,88.70
2018-12-07T17:11:56.259Z,89.56
2018-12-07T17:14:27.164Z,89.61
2018-12-07T17:16:56.458Z,89.38
2018-12-07T17:19:25.633Z,89.19
2018-12-07T17:21:55.473Z,89.00
2018-12-07T17:24:24.924Z,89.28
2018-12-07T17:26:54.713Z,89.87
2018-12-07T17:29:24.249Z,89.57
2018-12-07T17:31:56.162Z,89.83
2018-12-07T17:34:26.775Z,90.35
2018-12-07T17:36:57.049Z,89.78
2018-12-07T17:39:26.463Z,89.67
2018-12-07T17:41:55.846Z,89.52
2018-12-07T17:44:25.492Z,89.37
2018-12-07T17:46:55.584Z,89.71
2018-12-07T17:49:25.136Z,90.09
2018-12-07T17:51:55.289Z,89.17
2018-12-07T17:54:25.796Z,89.64
2018-12-07T17:56:58.030Z,90.60
2018-12-07T17:59:28.718Z,90.67
2018-12-07T18:02:00.389Z,91.18
2018-12-07T18:04:32.146Z,91.26
2018-12-07T18:07:02.038Z,90.98
2018-12-07T18:09:31.668Z,90.41
2018-12-07T18:12:01.903Z,90.41
2018-12-07T18:14:31.662Z,89.82
2018-12-07T18:17:01.916Z,91.02
2018-12-07T18:19:32.264Z,89.97
2018-12-07T18:22:03.815Z,89.79
2018-12-07T18:24:33.730Z,90.22
2018-12-07T18:27:03.184Z,90.26
2018-12-07T18:29:33.239Z,90.50
2018-12-07T18:32:03.871Z,90.44
2018-12-07T18:34:33.342Z,90.07
2018-12-07T18:37:03.011Z,89.60
2018-12-07T18:39:33.146Z,89.77
2018-12-07T18:42:03.939Z,90.35
2018-12-07T18:44:33.337Z,90.63
2018-12-07T18:47:03.076Z,90.74
2018-12-07T18:49:32.668Z,90.83
2018-12-07T18:52:03.215Z,90.82
2018-12-07T18:54:33.889Z,89.88
2018-12-07T18:57:03.652Z,89.93
2018-12-07T18:59:33.752Z,89.99
2018-12-07T19:02:04.022Z,89.93
2018-12-07T19:04:35.211Z,89.91
2018-12-07T19:07:04.828Z,89.75
2018-12-07T19:09:34.391Z,90.25
2018-12-07T19:12:04.463Z,89.04
2018-12-07T19:14:34.062Z,89.05
2018-12-07T19:24:08.226Z,89.31
2018-12-07T19:26:38.163Z,88.76
2018-12-07T19:29:07.720Z,89.03
2018-12-07T19:31:37.308Z,88.56
2018-12-07T19:34:07.329Z,86.76
2018-12-07T19:36:37.491Z,86.81
2018-12-07T19:39:09.576Z,86.29
2018-12-07T19:41:39.921Z,86.22
2018-12-07T19:44:09.909Z,86.55
2018-12-07T19:46:45.720Z,86.34
2018-12-07T19:49:15.828Z,85.92
2018-12-07T19:51:46.148Z,85.32
2018-12-07T19:54:16.025Z,85.48
2018-12-07T19:56:46.318Z,84.59
2018-12-07T19:59:16.064Z,84.22
2018-12-07T20:01:46.784Z,84.56
2018-12-07T20:04:16.835Z,84.62
2018-12-07T20:06:46.569Z,84.80
2018-12-07T20:09:16.930Z,85.00
2018-12-07T20:11:46.453Z,84.58
2018-12-07T20:14:15.910Z,84.94
2018-12-07T20:16:45.383Z,84.30
2018-12-07T20:19:16.557Z,85.53
2018-12-07T20:21:47.334Z,84.00
2018-12-07T20:24:17.043Z,83.43
2018-12-07T20:26:47.478Z,82.49
2018-12-07T20:29:17.342Z,81.40
2018-12-07T20:31:47.717Z,82.07
2018-12-07T20:34:17.846Z,81.06
2018-12-07T20:36:48.087Z,82.36
2018-12-07T20:39:17.411Z,81.54
2018-12-07T20:41:48.921Z,81.59
2018-12-07T20:44:19.218Z,82.64
2018-12-07T20:46:50.100Z,81.53
2018-12-07T20:49:19.887Z,82.49
2018-12-07T20:51:52.605Z,81.44
2018-12-07T20:54:22.806Z,82.06
2018-12-07T20:56:59.406Z,81.70
2018-12-07T20:59:33.643Z,80.39
2018-12-07T21:02:04.943Z,80.79
2018-12-07T21:04:42.613Z,82.69
2018-12-07T21:09:36.722Z,83.46
2018-12-07T21:12:26.542Z,83.61
2018-12-07T21:14:57.588Z,82.56
2018-12-07T21:17:34.275Z,82.99
2018-12-07T21:20:36.125Z,84.58
2018-12-07T21:23:06.480Z,84.19
2018-12-07T21:25:56.261Z,82.79
2018-12-07T21:28:26.309Z,83.61
2018-12-07T21:31:00.747Z,82.81
2018-12-07T21:33:40.205Z,84.67
2018-12-07T21:36:37.797Z,81.38
2018-12-07T21:40:14.669Z,81.26
2018-12-07T21:42:43.970Z,79.73
2018-12-07T21:45:13.434Z,80.40
2018-12-07T21:48:30.546Z,83.54
2018-12-07T21:54:13.737Z,80.33
2018-12-07T21:56:45.281Z,80.28
2018-12-07T21:59:18.878Z,78.29
2018-12-07T22:01:53.861Z,79.25
2018-12-07T22:04:24.410Z,80.08
2018-12-07T22:07:00.945Z,79.85
2018-12-07T22:09:31.901Z,80.18
2018-12-07T22:12:02.243Z,80.42
2018-12-07T22:14:43.551Z,79.84
2018-12-07T22:22:47.346Z,80.67
2018-12-07T22:25:17.798Z,79.59
2018-12-07T22:27:47.603Z,80.16
2018-12-07T22:30:18.411Z,79.43
2018-12-07T22:32:48.446Z,79.49
2018-12-07T22:35:17.881Z,78.72
2018-12-07T22:37:47.100Z,78.81
2018-12-07T22:40:17.105Z,79.15
2018-12-07T22:42:47.909Z,78.63
2018-12-07T22:45:17.242Z,78.36
2018-12-07T22:48:07.616Z,78.28
2018-12-07T22:50:45.628Z,77.42
2018-12-07T22:53:29.682Z,77.26
2018-12-07T22:55:59.234Z,77.41
2018-12-07T22:58:33.094Z,76.70
2018-12-07T23:01:12.396Z,75.41
2018-12-07T23:03:46.280Z,75.92
2018-12-07T23:06:15.906Z,76.43
2018-12-07T23:12:23.827Z,76.27
2018-12-07T23:18:17.722Z,77.38
2018-12-07T23:20:47.171Z,78.20
2018-12-07T23:23:19.230Z,78.30
2018-12-07T23:25:48.438Z,77.93
2018-12-07T23:28:19.575Z,78.00
2018-12-07T23:30:49.454Z,77.79
2018-12-07T23:33:19.816Z,76.61
2018-12-07T23:35:49.305Z,77.51
2018-12-07T23:38:18.576Z,77.28
2018-12-07T23:40:48.899Z,76.05
2018-12-07T23:43:18.025Z,76.36
2018-12-07T23:45:48.263Z,76.12
2018-12-07T23:48:17.394Z,75.19
2018-12-07T23:50:47.162Z,75.00
2018-12-07T23:53:16.697Z,75.22
2018-12-07T23:55:46.922Z,74.23
2018-12-07T23:58:18.536Z,74.89
